Time;durP1;ratioP1;P1;durP2;ratioP2;P2;SDS_P1;SDS_P2;PMS_P1;PMS_P2;Temp;Humidity;BMP_temperature;BMP_pressure;BME280_temperature;BME280_humidity;BME280_pressure;Samples;Min_cycle;Max_cycle;Signal;HPM_P1;HPM_P2
2021/12/19 00:02:19;;;;;;;;;;;;;;;5.63;66.19;100585.81;4358468;32;33125;-55
2021/12/19 00:10:19;;;;;;;;;;;;;;;5.35;67.31;100587.47;4358102;32;35222;-55
2021/12/19 00:12:46;;;;;;;;;;;;;;;5.44;66.79;100574.12;4359111;32;33439;-55
2021/12/19 00:15:13;;;;;;;;;;;;;;;5.57;66.41;100572.03;4358066;32;33745;-56
2021/12/19 00:17:40;;;;;;;;;;;;;;;5.55;66.54;100572.06;4358350;32;34721;-56
2021/12/19 00:20:08;;;;;;;;;;;;;;;5.59;66.33;100565.84;4358168;32;35045;-55
2021/12/19 00:22:55;;;;;;;;;;;;;;;5.57;66.40;100565.00;4343594;33;33040;-55
2021/12/19 00:25:24;;;;;;;;;;;;;;;5.65;66.24;100567.41;4348816;32;34509;-55
2021/12/19 00:27:51;;;;;;;;;;;;;;;5.57;66.55;100562.41;4357528;32;34734;-55
2021/12/19 00:30:18;;;;;;;;;;;;;;;5.69;66.36;100555.94;4358372;32;34916;-55
2021/12/19 00:32:45;;;;;;;;;;;;;;;5.82;65.82;100551.22;4358297;32;33236;-55
2021/12/19 00:35:12;;;;;;;;;;;;;;;5.73;66.35;100540.06;4357834;32;33649;-55
2021/12/19 00:37:40;;;;;;;;;;;;;;;5.84;66.04;100550.25;4357830;32;34879;-57
2021/12/19 00:40:07;;;;;;;;;;;;;;;5.82;66.36;100540.72;4358083;32;34565;-55
2021/12/19 00:42:35;;;;;;;;;;;;;;;5.88;66.21;100535.28;4358563;32;33189;-55
2021/12/19 00:45:16;;;;;;;;;;;;;;;5.61;67.01;100532.59;4357352;32;34343;-55
2021/12/19 00:47:43;;;;;;;;;;;;;;;5.64;67.21;100539.47;4357956;32;34769;-55
2021/12/19 00:50:12;;;;;;;;;;;;;;;5.81;66.57;100544.22;4357544;32;34933;-56
2021/12/19 00:52:42;;;;;;;;;;;;;;;5.88;66.40;100546.63;4358156;32;33099;-55
2021/12/19 00:55:09;;;;;;;;;;;;;;;5.79;66.73;100525.94;4357497;32;34624;-55
2021/12/19 00:57:36;;;;;;;;;;;;;;;5.70;67.15;100532.31;4357927;32;34117;-55
2021/12/19 01:00:05;;;;;;;;;;;;;;;5.83;66.69;100526.69;4357933;32;34187;-55
2021/12/19 01:02:33;;;;;;;;;;;;;;;5.81;66.94;100537.22;4357780;32;33011;-55
2021/12/19 01:05:01;;;;;;;;;;;;;;;5.89;66.99;100537.88;4357570;32;34927;-56
2021/12/19 01:07:28;;;;;;;;;;;;;;;6.18;65.86;100537.88;4358123;32;34111;-55
2021/12/19 01:09:55;;;;;;;;;;;;;;;5.93;66.85;100536.00;4357474;32;35471;-55
2021/12/19 01:12:24;;;;;;;;;;;;;;;6.12;66.37;100534.53;4358047;32;32929;-56
2021/12/19 01:14:51;;;;;;;;;;;;;;;5.88;66.97;100530.91;4356824;32;33963;-56
2021/12/19 01:17:18;;;;;;;;;;;;;;;5.90;67.28;100523.84;4358153;32;34898;-56
2021/12/19 01:19:46;;;;;;;;;;;;;;;6.04;66.78;100507.72;4357250;32;34755;-55
2021/12/19 01:22:13;;;;;;;;;;;;;;;6.18;66.48;100502.03;4357666;32;32768;-56
2021/12/19 01:24:40;;;;;;;;;;;;;;;6.20;66.52;100505.44;4357314;32;35046;-55
2021/12/19 01:27:07;;;;;;;;;;;;;;;6.41;65.72;100497.81;4357400;32;34916;-55
2021/12/19 01:29:34;;;;;;;;;;;;;;;6.25;66.48;100492.22;4357682;32;34053;-56
2021/12/19 01:32:02;;;;;;;;;;;;;;;6.14;67.12;100487.31;4355581;32;34505;-55
2021/12/19 01:34:30;;;;;;;;;;;;;;;6.17;66.87;100481.13;4357928;32;33971;-55
2021/12/19 01:36:58;;;;;;;;;;;;;;;6.37;66.30;100473.44;4356722;32;34332;-56
2021/12/19 01:39:25;;;;;;;;;;;;;;;6.41;66.29;100482.06;4357593;32;34582;-56
2021/12/19 01:41:54;;;;;;;;;;;;;;;6.46;66.31;100480.16;4356020;32;34329;-56
2021/12/19 01:44:22;;;;;;;;;;;;;;;6.44;66.37;100484.59;4357211;32;33779;-56
2021/12/19 01:46:50;;;;;;;;;;;;;;;6.58;66.19;100482.34;4357779;32;34979;-56
2021/12/19 01:49:18;;;;;;;;;;;;;;;6.72;65.77;100487.13;4357094;32;34666;-56
2021/12/19 01:51:45;;;;;;;;;;;;;;;6.62;66.39;100470.84;4358627;32;33165;-56
2021/12/19 01:54:12;;;;;;;;;;;;;;;6.81;65.67;100468.44;4359146;32;34146;-57
2021/12/19 01:56:40;;;;;;;;;;;;;;;6.55;66.56;100468.47;4359360;32;34646;-56
2021/12/19 01:59:10;;;;;;;;;;;;;;;6.80;65.85;100474.59;4359094;32;34634;-55
2021/12/19 02:01:45;;;;;;;;;;;;;;;6.76;65.96;100470.34;4359118;32;33938;-56
2021/12/19 02:04:14;;;;;;;;;;;;;;;6.63;66.42;100451.56;4358928;32;33842;-56
2021/12/19 02:06:41;;;;;;;;;;;;;;;6.85;65.77;100441.16;4356903;32;34489;-56
2021/12/19 02:09:09;;;;;;;;;;;;;;;6.77;66.06;100445.84;4359533;32;35191;-56
2021/12/19 02:11:37;;;;;;;;;;;;;;;6.94;65.48;100425.97;4359159;32;33263;-55
2021/12/19 02:14:05;;;;;;;;;;;;;;;6.91;65.66;100437.47;4359126;32;34313;-55
2021/12/19 02:16:32;;;;;;;;;;;;;;;7.17;64.79;100423.34;4358942;32;34770;-55
2021/12/19 02:18:59;;;;;;;;;;;;;;;7.12;64.90;100429.72;4344439;33;34628;-56
2021/12/19 02:21:26;;;;;;;;;;;;;;;6.78;66.27;100412.56;4344707;33;33180;-55
2021/12/19 02:23:57;;;;;;;;;;;;;;;7.17;65.08;100423.34;4350502;32;35029;-55
2021/12/19 02:26:25;;;;;;;;;;;;;;;7.08;65.29;100411.44;4359393;32;34468;-56
2021/12/19 02:28:53;;;;;;;;;;;;;;;7.32;64.83;100405.31;4358682;32;35130;-55
2021/12/19 02:31:21;;;;;;;;;;;;;;;7.26;64.97;100409.87;4359499;32;33399;-56
2021/12/19 02:37:24;;;;;;;;;;;;;;;7.21;64.87;100397.84;4350925;32;35798;-56
2021/12/19 02:50:20;;;;;;;;;;;;;;;7.33;64.58;100379.00;4358692;32;34906;-58
2021/12/19 02:52:47;;;;;;;;;;;;;;;7.33;64.59;100384.25;4358799;32;33678;-58
2021/12/19 02:55:15;;;;;;;;;;;;;;;7.30;64.77;100363.34;4358570;32;34280;-58
2021/12/19 02:57:42;;;;;;;;;;;;;;;7.45;64.05;100362.75;4359118;32;34251;-58
2021/12/19 03:00:11;;;;;;;;;;;;;;;7.19;65.18;100370.78;4358865;32;33915;-58
2021/12/19 03:02:38;;;;;;;;;;;;;;;7.14;65.14;100368.34;4357893;32;33598;-58
2021/12/19 03:05:06;;;;;;;;;;;;;;;7.07;65.46;100361.59;4359066;32;35128;-58
2021/12/19 03:07:38;;;;;;;;;;;;;;;6.99;65.50;100359.25;4358815;32;34792;-58
2021/12/19 03:10:45;;;;;;;;;;;;;;;7.42;64.18;100338.34;4358741;32;34625;-58
2021/12/19 03:13:33;;;;;;;;;;;;;;;7.46;64.04;100334.69;4358387;32;33582;-58
2021/12/19 03:18:46;;;;;;;;;;;;;;;7.48;63.78;100317.97;4359128;32;35601;-58
2021/12/19 03:21:16;;;;;;;;;;;;;;;7.29;64.39;100315.19;4358633;32;34751;-58
2021/12/19 03:23:43;;;;;;;;;;;;;;;7.39;63.95;100309.59;4358744;32;33314;-58
2021/12/19 03:26:11;;;;;;;;;;;;;;;7.36;63.98;100301.81;4358805;32;34917;-58
2021/12/19 03:28:38;;;;;;;;;;;;;;;7.29;64.27;100293.34;4358545;32;34850;-59
2021/12/19 03:31:05;;;;;;;;;;;;;;;7.43;63.76;100300.66;4358609;32;33765;-58
2021/12/19 03:33:35;;;;;;;;;;;;;;;7.32;63.91;100311.59;4358589;32;33929;-59
2021/12/19 03:36:03;;;;;;;;;;;;;;;7.23;64.19;100294.44;4358427;32;34563;-58
2021/12/19 03:38:30;;;;;;;;;;;;;;;7.28;64.08;100292.47;4358425;32;35690;-58
2021/12/19 03:41:15;;;;;;;;;;;;;;;7.37;63.81;100280.75;4358254;32;34494;-58
2021/12/19 03:43:42;;;;;;;;;;;;;;;7.36;63.79;100267.66;4359108;32;33714;-58
2021/12/19 03:46:09;;;;;;;;;;;;;;;7.26;64.18;100261.94;4358294;32;34329;-58
2021/12/19 03:48:37;;;;;;;;;;;;;;;7.53;62.89;100259.94;4358371;32;34560;-58
2021/12/19 03:51:04;;;;;;;;;;;;;;;7.28;63.79;100273.22;4358503;32;35032;-58
2021/12/19 03:53:31;;;;;;;;;;;;;;;7.20;63.68;100270.06;4358747;32;34271;-59
2021/12/19 03:55:59;;;;;;;;;;;;;;;7.01;64.50;100262.91;4358306;32;33680;-58
2021/12/19 03:58:28;;;;;;;;;;;;;;;7.37;63.38;100259.72;4358315;32;34786;-58
2021/12/19 04:00:59;;;;;;;;;;;;;;;6.71;65.40;100264.97;4357336;32;34566;-58
2021/12/19 04:03:29;;;;;;;;;;;;;;;7.16;64.15;100274.56;4358250;32;34261;-58
2021/12/19 04:05:56;;;;;;;;;;;;;;;7.40;63.12;100261.34;4359144;32;34154;-58
2021/12/19 04:08:23;;;;;;;;;;;;;;;7.45;63.08;100272.53;4357721;32;34281;-58
2021/12/19 04:10:51;;;;;;;;;;;;;;;7.36;63.02;100263.25;4358348;32;33990;-58
2021/12/19 04:13:19;;;;;;;;;;;;;;;7.20;63.59;100283.19;4358141;32;33636;-58
2021/12/19 04:15:48;;;;;;;;;;;;;;;7.27;63.22;100267.13;4358066;32;34365;-58
2021/12/19 04:18:16;;;;;;;;;;;;;;;7.32;62.81;100259.03;4358392;32;34398;-58
2021/12/19 04:20:43;;;;;;;;;;;;;;;6.92;64.05;100272.91;4358028;32;34502;-58
2021/12/19 04:23:10;;;;;;;;;;;;;;;6.84;64.37;100266.19;4358546;32;34348;-59
2021/12/19 04:25:37;;;;;;;;;;;;;;;6.89;64.30;100264.22;4358381;32;34262;-58
2021/12/19 04:28:05;;;;;;;;;;;;;;;6.97;63.57;100261.31;4358159;32;35469;-58
2021/12/19 04:30:32;;;;;;;;;;;;;;;6.83;63.90;100243.47;4358242;32;34790;-58
2021/12/19 04:33:06;;;;;;;;;;;;;;;6.92;63.84;100258.03;4357856;32;33306;-58
2021/12/19 04:35:35;;;;;;;;;;;;;;;6.86;63.79;100261.75;4358838;32;34075;-58
2021/12/19 04:52:12;;;;;;;;;;;;;;;7.12;63.01;100212.59;4357389;32;34346;-58
2021/12/19 05:00:00;;;;;;;;;;;;;;;7.07;62.57;100207.50;4357449;32;35689;-58
2021/12/19 05:16:07;;;;;;;;;;;;;;;7.12;62.43;100183.69;4357112;32;33332;-58
2021/12/19 05:18:37;;;;;;;;;;;;;;;7.11;62.39;100174.09;4358244;32;34087;-58
2021/12/19 05:21:14;;;;;;;;;;;;;;;7.08;62.65;100176.88;4357123;32;34764;-58
2021/12/19 05:26:11;;;;;;;;;;;;;;;6.75;63.94;100156.31;4358096;32;33503;-58
2021/12/19 05:28:38;;;;;;;;;;;;;;;6.49;64.82;100162.56;4359463;32;33845;-58
2021/12/19 05:31:06;;;;;;;;;;;;;;;6.52;64.85;100145.87;4359484;32;34141;-58
2021/12/19 05:33:34;;;;;;;;;;;;;;;6.66;64.31;100168.00;4359156;32;34790;-58
2021/12/19 05:46:56;;;;;;;;;;;;;;;6.63;64.92;100143.66;4358902;32;33251;-58
2021/12/19 05:49:24;;;;;;;;;;;;;;;6.63;65.04;100156.78;4359660;32;33575;-58
2021/12/19 05:51:51;;;;;;;;;;;;;;;6.81;64.37;100140.31;4359062;32;34621;-58
2021/12/19 05:54:18;;;;;;;;;;;;;;;6.94;64.26;100148.56;4344812;32;34203;-58
2021/12/19 05:56:46;;;;;;;;;;;;;;;6.87;64.32;100152.34;4359344;32;33549;-58
2021/12/19 05:59:13;;;;;;;;;;;;;;;6.80;64.64;100150.88;4359493;32;33632;-58
2021/12/19 06:01:42;;;;;;;;;;;;;;;6.65;65.29;100153.19;4358674;32;34920;-58
2021/12/19 06:04:10;;;;;;;;;;;;;;;6.56;65.81;100145.69;4359177;32;35167;-58
2021/12/19 06:06:38;;;;;;;;;;;;;;;6.70;65.12;100145.97;4359304;32;33898;-58
2021/12/19 06:09:05;;;;;;;;;;;;;;;6.80;65.37;100156.13;4359484;32;34056;-58
2021/12/19 06:11:33;;;;;;;;;;;;;;;6.95;64.70;100158.13;4358880;32;34319;-58
2021/12/19 06:14:01;;;;;;;;;;;;;;;6.94;64.87;100160.81;4359315;32;35149;-58
2021/12/19 06:16:29;;;;;;;;;;;;;;;7.19;64.12;100155.37;4358306;32;33177;-58
2021/12/19 06:18:57;;;;;;;;;;;;;;;7.08;64.27;100154.06;4359634;32;34237;-58
2021/12/19 06:21:24;;;;;;;;;;;;;;;7.15;64.10;100145.94;4358465;32;34322;-58
2021/12/19 06:23:51;;;;;;;;;;;;;;;7.04;64.32;100151.66;4358732;32;34119;-58
2021/12/19 06:26:18;;;;;;;;;;;;;;;7.11;64.10;100153.09;4358666;32;33607;-58
2021/12/19 06:28:45;;;;;;;;;;;;;;;7.08;64.17;100148.81;4356630;32;33927;-58
2021/12/19 06:31:13;;;;;;;;;;;;;;;7.02;64.31;100148.22;4358848;32;34739;-58
2021/12/19 06:33:40;;;;;;;;;;;;;;;7.05;64.47;100151.56;4356866;32;35538;-58
2021/12/19 06:36:09;;;;;;;;;;;;;;;6.90;64.89;100139.06;4358356;32;34292;-58
2021/12/19 06:38:36;;;;;;;;;;;;;;;7.16;64.15;100140.62;4361785;32;34501;-59
2021/12/19 06:41:04;;;;;;;;;;;;;;;7.19;63.89;100130.00;4366293;32;34766;-58
2021/12/19 06:43:33;;;;;;;;;;;;;;;7.16;63.95;100135.37;4361275;32;34604;-58
2021/12/19 06:46:00;;;;;;;;;;;;;;;7.21;63.81;100127.28;4357825;32;34238;-58
2021/12/19 06:48:27;;;;;;;;;;;;;;;6.99;64.58;100114.22;4353383;32;33794;-58
2021/12/19 06:50:55;;;;;;;;;;;;;;;7.04;64.47;100115.72;4358593;32;34433;-58
2021/12/19 06:53:23;;;;;;;;;;;;;;;7.00;64.58;100121.16;4359391;32;33793;-58
2021/12/19 06:55:50;;;;;;;;;;;;;;;6.99;64.87;100125.56;4358138;32;33714;-58
2021/12/19 06:58:17;;;;;;;;;;;;;;;7.23;64.19;100125.44;4359624;32;34361;-58
2021/12/19 07:00:44;;;;;;;;;;;;;;;7.35;63.59;100109.19;4358710;32;34154;-58
2021/12/19 07:03:14;;;;;;;;;;;;;;;7.42;63.24;100104.50;4349045;32;34874;-59
2021/12/19 07:05:42;;;;;;;;;;;;;;;7.23;63.78;100104.44;4357016;32;33003;-58
2021/12/19 07:08:09;;;;;;;;;;;;;;;7.19;63.76;100102.84;4357728;32;34910;-59
2021/12/19 07:10:37;;;;;;;;;;;;;;;7.37;63.40;100106.50;4361342;32;34390;-58
2021/12/19 07:13:04;;;;;;;;;;;;;;;7.47;62.95;100107.78;4357469;32;34067;-58
2021/12/19 07:15:31;;;;;;;;;;;;;;;7.52;62.61;100104.94;4358942;32;32406;-59
2021/12/19 07:18:04;;;;;;;;;;;;;;;7.32;63.06;100103.19;4358150;32;33800;-58
2021/12/19 07:20:31;;;;;;;;;;;;;;;7.23;63.42;100086.91;4358047;32;34860;-58
2021/12/19 07:22:58;;;;;;;;;;;;;;;7.21;63.23;100086.12;4359887;32;34168;-58
2021/12/19 07:25:26;;;;;;;;;;;;;;;6.98;64.58;100086.25;4358502;32;32865;-55
2021/12/19 07:27:53;;;;;;;;;;;;;;;7.16;63.94;100082.84;4358564;32;34882;-55
2021/12/19 07:30:24;;;;;;;;;;;;;;;7.34;63.26;100086.44;4357752;32;35431;-55
2021/12/19 07:32:53;;;;;;;;;;;;;;;7.16;63.93;100084.63;4358793;32;35197;-55
2021/12/19 07:35:21;;;;;;;;;;;;;;;7.54;62.79;100085.59;4354465;32;33044;-55
2021/12/19 07:37:50;;;;;;;;;;;;;;;7.02;64.43;100093.94;4344041;33;35001;-56
2021/12/19 07:40:20;;;;;;;;;;;;;;;7.06;64.53;100086.78;4344120;32;34750;-55
2021/12/19 07:42:47;;;;;;;;;;;;;;;7.10;64.63;100086.59;4358213;32;34462;-55
2021/12/19 07:45:14;;;;;;;;;;;;;;;7.23;63.96;100083.41;4358380;32;33078;-56
2021/12/19 07:47:43;;;;;;;;;;;;;;;6.96;64.74;100085.44;4357541;32;33807;-55
2021/12/19 07:50:11;;;;;;;;;;;;;;;6.94;65.18;100089.91;4344738;32;33120;-55
2021/12/19 07:52:38;;;;;;;;;;;;;;;7.16;64.32;100077.59;4358021;32;34595;-55
2021/12/19 07:55:06;;;;;;;;;;;;;;;7.01;64.81;100078.25;4358100;32;33639;-55
2021/12/19 07:57:33;;;;;;;;;;;;;;;7.10;64.58;100080.47;4334709;33;33720;-56
2021/12/19 08:00:02;;;;;;;;;;;;;;;7.25;64.07;100069.31;4370763;32;35333;-55
2021/12/19 08:02:38;;;;;;;;;;;;;;;7.08;64.61;100054.28;4358212;32;35369;-55
2021/12/19 08:05:06;;;;;;;;;;;;;;;6.92;65.26;100063.75;4357470;32;33251;-55
2021/12/19 08:07:33;;;;;;;;;;;;;;;7.01;64.83;100057.25;4358534;32;35827;-55
2021/12/19 08:12:27;;;;;;;;;;;;;;;7.10;64.76;100059.47;4357080;32;34594;-55
2021/12/19 08:14:55;;;;;;;;;;;;;;;6.95;65.50;100045.22;4357335;32;33821;-55
2021/12/19 08:17:22;;;;;;;;;;;;;;;7.11;64.92;100053.28;4358069;32;34289;-55
2021/12/19 08:19:49;;;;;;;;;;;;;;;7.24;64.42;100037.88;4358089;32;34654;-55
2021/12/19 08:22:16;;;;;;;;;;;;;;;7.22;64.63;100032.66;4358056;32;34255;-54
2021/12/19 08:24:46;;;;;;;;;;;;;;;7.14;64.78;100037.41;4358259;32;32930;-55
2021/12/19 08:27:13;;;;;;;;;;;;;;;7.28;64.71;100029.75;4357794;32;34801;-55
2021/12/19 08:29:41;;;;;;;;;;;;;;;7.36;64.31;100028.59;4358000;32;34371;-55
2021/12/19 08:32:08;;;;;;;;;;;;;;;7.26;64.97;100018.47;4358424;32;34225;-55
2021/12/19 08:34:36;;;;;;;;;;;;;;;7.30;64.96;100014.78;4357778;32;34407;-55
2021/12/19 08:37:03;;;;;;;;;;;;;;;7.72;63.99;100028.69;4357515;32;34225;-55
2021/12/19 08:39:32;;;;;;;;;;;;;;;7.80;63.92;100012.56;4344039;32;34514;-55
2021/12/19 08:42:00;;;;;;;;;;;;;;;7.73;63.76;100013.78;4358271;32;35886;-56
2021/12/19 08:44:27;;;;;;;;;;;;;;;7.64;63.71;100010.66;4356992;32;33728;-55
2021/12/19 08:46:54;;;;;;;;;;;;;;;7.56;64.39;100002.28;4357246;32;33594;-55
2021/12/19 08:49:22;;;;;;;;;;;;;;;7.46;64.78;100006.22;4357374;32;34208;-55
2021/12/19 08:51:49;;;;;;;;;;;;;;;7.80;64.10;99992.38;4357348;32;35161;-55
2021/12/19 08:54:16;;;;;;;;;;;;;;;7.73;63.77;99993.59;4357801;32;34294;-55
2021/12/19 08:56:44;;;;;;;;;;;;;;;7.85;63.53;100003.53;4356325;32;33796;-55
2021/12/19 08:59:11;;;;;;;;;;;;;;;7.79;63.96;99987.19;4366251;32;34739;-55
2021/12/19 09:01:38;;;;;;;;;;;;;;;7.67;63.79;99986.84;4373945;32;34378;-55
2021/12/19 09:04:06;;;;;;;;;;;;;;;7.84;63.69;99980.78;4361394;32;33586;-55
2021/12/19 09:06:33;;;;;;;;;;;;;;;7.79;63.59;99972.28;4358723;32;35097;-55
2021/12/19 09:09:02;;;;;;;;;;;;;;;7.88;63.46;99978.87;4367887;32;34703;-55
2021/12/19 09:11:29;;;;;;;;;;;;;;;8.10;62.70;99968.16;4374447;32;35198;-55
2021/12/19 09:13:57;;;;;;;;;;;;;;;8.02;62.52;99968.53;4359498;32;33993;-55
2021/12/19 09:16:25;;;;;;;;;;;;;;;7.90;63.28;99971.75;4359887;32;35046;-55
2021/12/19 09:19:11;;;;;;;;;;;;;;;7.87;63.18;99961.38;4358996;32;34272;-55
2021/12/19 09:21:39;;;;;;;;;;;;;;;8.04;62.81;99961.41;4359535;32;34558;-55
2021/12/19 09:24:06;;;;;;;;;;;;;;;8.09;62.43;99942.81;4361998;32;33089;-55
2021/12/19 09:26:33;;;;;;;;;;;;;;;8.13;62.44;99939.09;4373697;32;34059;-55
2021/12/19 09:29:00;;;;;;;;;;;;;;;7.99;62.43;99945.03;4374843;32;34982;-55
2021/12/19 09:31:29;;;;;;;;;;;;;;;7.92;62.63;99927.00;4374231;32;33863;-54
2021/12/19 09:33:57;;;;;;;;;;;;;;;8.00;62.52;99925.69;4374052;32;33559;-55
2021/12/19 09:36:24;;;;;;;;;;;;;;;8.13;62.06;99919.84;4374454;32;34392;-55
2021/12/19 09:38:52;;;;;;;;;;;;;;;7.98;62.33;99924.91;4374234;32;35817;-55
2021/12/19 09:41:27;;;;;;;;;;;;;;;7.98;62.24;99924.91;4374386;32;34538;-55
2021/12/19 09:43:58;;;;;;;;;;;;;;;8.14;61.58;99921.53;4372740;32;33719;-55
2021/12/19 09:46:28;;;;;;;;;;;;;;;8.29;61.14;99903.19;4374550;32;33689;-55
2021/12/19 09:48:55;;;;;;;;;;;;;;;8.14;61.61;99906.59;4373853;32;35071;-55
2021/12/19 09:51:22;;;;;;;;;;;;;;;8.30;61.30;99909.31;4374435;32;34412;-55
2021/12/19 09:53:50;;;;;;;;;;;;;;;8.42;60.74;99879.78;4374321;32;34373;-55
2021/12/19 09:56:17;;;;;;;;;;;;;;;8.62;60.25;99880.53;4373831;32;33878;-55
2021/12/19 09:58:45;;;;;;;;;;;;;;;8.55;60.20;99884.41;4368026;32;34847;-55
2021/12/19 10:01:13;;;;;;;;;;;;;;;8.77;59.59;99865.72;4364873;32;33919;-55
2021/12/19 10:03:40;;;;;;;;;;;;;;;8.57;59.65;99864.13;4374220;32;33714;-55
2021/12/19 10:06:13;;;;;;;;;;;;;;;8.63;59.76;99851.50;4374070;32;34948;-54
2021/12/19 10:08:41;;;;;;;;;;;;;;;8.52;59.71;99834.56;4374130;32;34736;-55
2021/12/19 10:11:30;;;;;;;;;;;;;;;8.75;59.07;99843.88;4373615;32;34118;-55
2021/12/19 10:13:57;;;;;;;;;;;;;;;8.44;59.83;99833.19;4373920;32;33825;-55
2021/12/19 10:16:29;;;;;;;;;;;;;;;8.35;59.64;99854.66;4374819;32;34942;-55
2021/12/19 10:18:58;;;;;;;;;;;;;;;8.30;60.04;99835.66;4373662;32;34704;-55
2021/12/19 10:21:27;;;;;;;;;;;;;;;8.57;59.50;99836.03;4374031;32;35257;-55
2021/12/19 10:24:00;;;;;;;;;;;;;;;8.42;59.96;99824.53;4374052;32;33714;-55
2021/12/19 10:26:41;;;;;;;;;;;;;;;8.53;59.40;99809.94;4372559;32;35127;-55
2021/12/19 10:29:10;;;;;;;;;;;;;;;8.01;60.83;99816.94;4374317;32;35820;-55
2021/12/19 10:31:37;;;;;;;;;;;;;;;8.34;59.75;99805.63;4373830;32;33815;-55
2021/12/19 10:34:17;;;;;;;;;;;;;;;8.18;60.57;99807.34;4373891;32;34254;-55
2021/12/19 10:36:44;;;;;;;;;;;;;;;8.22;60.46;99808.88;4370722;32;33714;-55
2021/12/19 10:39:23;;;;;;;;;;;;;;;8.12;60.66;99794.50;4359007;32;34643;-55
2021/12/19 10:41:58;;;;;;;;;;;;;;;7.97;61.08;99799.62;4358607;32;34089;-55
2021/12/19 10:47:22;;;;;;;;;;;;;;;8.32;59.96;99794.31;4358969;32;34309;-55
2021/12/19 10:49:49;;;;;;;;;;;;;;;8.32;60.05;99812.75;4358822;32;34238;-55
2021/12/19 10:52:31;;;;;;;;;;;;;;;8.53;59.34;99807.31;4358712;32;34368;-55
2021/12/19 10:54:59;;;;;;;;;;;;;;;8.46;59.12;99802.37;4358856;32;34264;-55
2021/12/19 10:57:30;;;;;;;;;;;;;;;8.38;59.62;99817.69;4358179;32;33630;-55
2021/12/19 10:59:57;;;;;;;;;;;;;;;8.43;59.84;99809.56;4359634;32;35526;-55
2021/12/19 11:02:54;;;;;;;;;;;;;;;8.39;59.36;99803.59;4358281;32;35182;-55
2021/12/19 11:05:40;;;;;;;;;;;;;;;8.15;60.12;99810.13;4351734;32;33642;-55
2021/12/19 11:08:08;;;;;;;;;;;;;;;8.20;59.98;99803.72;4358253;32;34339;-55
2021/12/19 11:10:37;;;;;;;;;;;;;;;8.28;59.57;99805.94;4358257;32;35603;-56
2021/12/19 11:13:05;;;;;;;;;;;;;;;8.35;59.55;99803.84;4358534;32;33803;-55
2021/12/19 11:15:32;;;;;;;;;;;;;;;8.17;60.06;99797.75;4358924;32;33709;-55
2021/12/19 11:17:59;;;;;;;;;;;;;;;8.21;59.45;99800.12;4357069;32;34258;-55
2021/12/19 11:20:27;;;;;;;;;;;;;;;8.39;59.12;99806.22;4358297;32;34283;-55
2021/12/19 11:22:55;;;;;;;;;;;;;;;8.21;59.49;99815.06;4357632;32;35934;-55
2021/12/19 11:25:23;;;;;;;;;;;;;;;8.14;59.36;99827.69;4357251;32;33118;-55
2021/12/19 11:27:50;;;;;;;;;;;;;;;7.87;60.11;99840.44;4357590;32;33747;-55
2021/12/19 11:30:18;;;;;;;;;;;;;;;8.07;59.75;99842.09;4357187;32;34447;-55
2021/12/19 11:33:05;;;;;;;;;;;;;;;8.15;59.78;99842.53;4356017;32;34499;-55
2021/12/19 11:35:36;;;;;;;;;;;;;;;8.14;59.25;99839.97;4343755;33;33230;-55
2021/12/19 11:38:08;;;;;;;;;;;;;;;8.09;59.54;99833.19;4352068;32;34375;-55
2021/12/19 11:40:37;;;;;;;;;;;;;;;8.06;59.78;99827.22;4357930;32;34450;-55
2021/12/19 11:43:08;;;;;;;;;;;;;;;8.25;59.33;99835.88;4357335;32;35074;-55
2021/12/19 11:45:42;;;;;;;;;;;;;;;8.17;59.29;99821.44;4365105;32;33339;-55
2021/12/19 11:50:52;;;;;;;;;;;;;;;8.17;59.16;99829.31;4360560;32;34295;-55
2021/12/19 11:53:22;;;;;;;;;;;;;;;8.06;59.79;99830.72;4343410;32;34760;-55
2021/12/19 11:55:50;;;;;;;;;;;;;;;8.15;59.45;99825.91;4357583;32;33406;-55
2021/12/19 11:58:19;;;;;;;;;;;;;;;8.11;59.46;99827.00;4361791;32;34108;-55
2021/12/19 12:00:50;;;;;;;;;;;;;;;8.33;58.98;99811.78;4373309;32;34629;-55
2021/12/19 12:03:21;;;;;;;;;;;;;;;8.54;57.96;99815.12;4371159;32;34571;-55
2021/12/19 12:05:49;;;;;;;;;;;;;;;8.31;58.15;99820.72;4344743;32;32642;-55
2021/12/19 12:08:20;;;;;;;;;;;;;;;8.26;58.66;99818.34;4360340;32;33987;-55
2021/12/19 12:10:48;;;;;;;;;;;;;;;8.30;58.61;99822.50;4358622;32;35434;-55
2021/12/19 12:13:34;;;;;;;;;;;;;;;8.16;59.05;99812.69;4362928;32;34570;-55
2021/12/19 12:16:25;;;;;;;;;;;;;;;8.48;58.03;99813.66;4357671;32;34183;-55
2021/12/19 12:18:58;;;;;;;;;;;;;;;8.16;58.78;99811.81;4352707;32;34501;-55
2021/12/19 12:21:34;;;;;;;;;;;;;;;8.23;58.49;99805.31;4358471;32;35812;-55
2021/12/19 12:24:10;;;;;;;;;;;;;;;8.17;58.79;99805.66;4357580;32;34649;-55
2021/12/19 12:26:49;;;;;;;;;;;;;;;8.02;59.18;99800.22;4357622;32;33218;-55
2021/12/19 12:29:17;;;;;;;;;;;;;;;8.46;58.04;99802.37;4358222;32;33867;-55
2021/12/19 12:31:44;;;;;;;;;;;;;;;8.11;58.99;99798.06;4357567;32;34520;-55
2021/12/19 12:34:12;;;;;;;;;;;;;;;7.98;59.58;99803.94;4361674;32;34580;-55
2021/12/19 12:36:39;;;;;;;;;;;;;;;8.13;58.99;99788.31;4357705;32;33261;-55
2021/12/19 12:39:10;;;;;;;;;;;;;;;8.02;59.09;99781.81;4357392;32;35093;-55
2021/12/19 12:42:01;;;;;;;;;;;;;;;8.28;58.77;99775.22;4357472;32;35809;-55
2021/12/19 12:44:28;;;;;;;;;;;;;;;8.01;59.08;99780.13;4356631;32;34167;-55
2021/12/19 12:46:55;;;;;;;;;;;;;;;7.88;59.67;99768.53;4357327;32;34458;-55
2021/12/19 12:49:26;;;;;;;;;;;;;;;7.88;59.92;99771.16;4356923;32;33610;-56
2021/12/19 12:51:56;;;;;;;;;;;;;;;7.98;59.65;99761.88;4357922;32;34997;-56
2021/12/19 12:54:27;;;;;;;;;;;;;;;7.93;59.79;99763.03;4356795;32;33834;-55
2021/12/19 12:56:55;;;;;;;;;;;;;;;8.16;59.57;99757.47;4357083;32;33044;-55
2021/12/19 12:59:23;;;;;;;;;;;;;;;8.03;59.56;99764.28;4358500;32;34323;-55
2021/12/19 13:02:13;;;;;;;;;;;;;;;8.20;58.79;99758.13;4356715;32;34503;-55
2021/12/19 13:04:44;;;;;;;;;;;;;;;7.89;59.44;99746.59;4357715;32;34355;-55
2021/12/19 13:07:12;;;;;;;;;;;;;;;8.02;59.34;99746.78;4356681;32;33802;-55
2021/12/19 13:09:39;;;;;;;;;;;;;;;7.86;59.55;99744.09;4356912;32;34534;-55
2021/12/19 13:12:06;;;;;;;;;;;;;;;7.73;59.76;99746.50;4356896;32;34857;-55
2021/12/19 13:14:36;;;;;;;;;;;;;;;7.86;59.99;99746.72;4352457;32;111328;-55
2021/12/19 13:17:07;;;;;;;;;;;;;;;7.94;59.46;99747.19;4357232;32;33056;-56
2021/12/19 13:19:34;;;;;;;;;;;;;;;7.75;60.08;99739.38;4356956;32;33667;-55
2021/12/19 13:22:03;;;;;;;;;;;;;;;7.66;60.54;99735.44;4357786;32;34031;-56
2021/12/19 13:24:32;;;;;;;;;;;;;;;7.75;60.38;99734.13;4356937;32;34988;-55
2021/12/19 13:27:03;;;;;;;;;;;;;;;7.94;59.82;99744.56;4357627;32;35436;-55
2021/12/19 13:29:30;;;;;;;;;;;;;;;7.67;60.36;99724.00;4356977;32;34531;-55
2021/12/19 13:32:16;;;;;;;;;;;;;;;7.85;60.02;99724.84;4356045;32;34654;-55
2021/12/19 13:34:44;;;;;;;;;;;;;;;8.03;59.39;99709.06;4357440;32;34569;-55
2021/12/19 13:37:11;;;;;;;;;;;;;;;7.83;60.11;99712.69;4357103;32;34235;-55
2021/12/19 13:39:41;;;;;;;;;;;;;;;7.63;60.91;99698.81;4344056;32;32198;-55
2021/12/19 13:42:09;;;;;;;;;;;;;;;7.68;60.67;99702.06;4357337;32;35351;-55
2021/12/19 13:44:36;;;;;;;;;;;;;;;7.64;61.06;99700.50;4357081;32;34121;-55
2021/12/19 13:47:13;;;;;;;;;;;;;;;7.72;60.75;99684.34;4357657;32;33771;-55
2021/12/19 13:49:41;;;;;;;;;;;;;;;7.79;60.52;99683.13;4358321;32;34866;-55
2021/12/19 13:52:08;;;;;;;;;;;;;;;7.91;60.50;99693.91;4349192;32;35370;-55
2021/12/19 13:54:38;;;;;;;;;;;;;;;8.04;60.02;99682.66;4359041;32;34076;-55
2021/12/19 13:57:21;;;;;;;;;;;;;;;7.88;60.13;99684.41;4359187;32;33818;-56
2021/12/19 13:59:48;;;;;;;;;;;;;;;8.27;58.96;99685.84;4371974;32;33884;-55
2021/12/19 14:02:16;;;;;;;;;;;;;;;8.08;59.58;99675.44;4374331;32;34666;-55
2021/12/19 14:04:43;;;;;;;;;;;;;;;8.12;59.34;99681.41;4374442;32;34673;-55
2021/12/19 14:07:11;;;;;;;;;;;;;;;8.23;58.98;99679.06;4363947;32;34293;-55
2021/12/19 14:09:57;;;;;;;;;;;;;;;8.00;59.72;99689.00;4359638;32;34320;-55
2021/12/19 14:12:50;;;;;;;;;;;;;;;7.88;59.99;99692.28;4359180;32;34351;-55
2021/12/19 14:15:17;;;;;;;;;;;;;;;8.23;58.85;99689.56;4358756;32;34279;-55
2021/12/19 14:17:44;;;;;;;;;;;;;;;7.99;59.08;99687.31;4359200;32;33809;-55
2021/12/19 14:20:11;;;;;;;;;;;;;;;7.97;59.22;99697.06;4358336;32;33858;-55